This is the latest recevied weather packets stored in our database for station/object KE6JJJ-1. If no packets are shown the sender has not sent any weather packets the latest 10 day(s).
| Time | Temp. | Humidity | Pressure | Rain* | Wind** | Luminosity | Snow |
|---|---|---|---|---|---|---|---|
| 1788557703 | 21.11° C | 69% | 1014.3 hPa | 0 mm | - | 780 W/m² | - |
| 1788555903 | 21.11° C | 70% | 1014.3 hPa | 0 mm | - | 812 W/m² | - |
| 1788554103 | 21.11° C | 68% | 1014.4 hPa | 0 mm | - | 837 W/m² | - |
| 1788552303 | 21.11° C | 67% | 1014.2 hPa | 0 mm | - | 847 W/m² | - |
| 1788550503 | 21.11° C | 68% | 1014.2 hPa | 0 mm | - | 838 W/m² | - |
| 1788548703 | 21.11° C | 67% | 1014.4 hPa | 0 mm | - | 809 W/m² | - |
| 1788546903 | 21.11° C | 67% | 1014.4 hPa | 0 mm | - | 777 W/m² | - |
| 1788545103 | 20° C | 72% | 1014.3 hPa | 0 mm | - | 729 W/m² | - |
| 1788543303 | 18.89° C | 76% | 1014.3 hPa | 0 mm | - | 661 W/m² | - |
| 1788541503 | 17.78° C | 79% | 1014.2 hPa | 0 mm | - | 591 W/m² | - |
| 1788539703 | 17.78° C | 79% | 1014.1 hPa | 0 mm | - | 506 W/m² | - |
| 1788537903 | 17.22° C | 83% | 1014 hPa | 0 mm | - | 409 W/m² | - |
| 1788536103 | 16.11° C | 89% | 1013.9 hPa | 0 mm | - | 303 W/m² | - |
| 1788532503 | 15° C | 89% | 1013.2 hPa | 0 mm | - | 97 W/m² | - |
| 1788530703 | 14.44° C | 89% | 1012.8 hPa | 0 mm | - | 33 W/m² | - |
| 1788528903 | 14.44° C | 89% | 1012.6 hPa | 0 mm | - | 0 W/m² | - |
| 1788527104 | 14.44° C | 88% | 1012.3 hPa | 0 mm | - | 0 W/m² | - |
| 1788525303 | 15° C | 89% | 1012.3 hPa | 0 mm | - | 0 W/m² | - |
| 1788523503 | 15° C | 88% | 1012.4 hPa | 0 mm | - | 0 W/m² | - |
| 1788521703 | 15° C | 87% | 1012 hPa | 0 mm | - | 0 W/m² | - |
| 1788519903 | 15° C | 87% | 1012.1 hPa | 0 mm | - | 0 W/m² | - |
| 1788518103 | 15.56° C | 87% | 1012.2 hPa | 0 mm | - | 0 W/m² | - |
| 1788516304 | 16.11° C | 87% | 1012.1 hPa | 0 mm | - | 0 W/m² | - |
| 1788514503 | 16.11° C | 87% | 1012 hPa | 0 mm | - | 0 W/m² | - |
| 1788512703 | 16.67° C | 87% | 1011.9 hPa | 0 mm | - | 0 W/m² | - |
* Rain latest hour (hover to see other rain measurements)
** Current wind speed in m/s (hover to see current wind gust speed)